sensor_id;sensor_type;location;lat;lon;timestamp;P1;durP1;ratioP1;P2;durP2;ratioP2
40729;SDS011;26418;50.070;8.436;2024-01-16T00:02:22;5.97;;;2.22;;
40729;SDS011;26418;50.070;8.436;2024-01-16T00:04:48;7.85;;;2.70;;
40729;SDS011;26418;50.070;8.436;2024-01-16T00:07:14;7.15;;;3.08;;
40729;SDS011;26418;50.070;8.436;2024-01-16T00:09:39;10.68;;;3.45;;
40729;SDS011;26418;50.070;8.436;2024-01-16T00:12:05;6.82;;;3.08;;
40729;SDS011;26418;50.070;8.436;2024-01-16T00:14:34;4.47;;;2.90;;
40729;SDS011;26418;50.070;8.436;2024-01-16T00:17:02;7.07;;;2.58;;
40729;SDS011;26418;50.070;8.436;2024-01-16T00:19:28;6.63;;;2.55;;
40729;SDS011;26418;50.070;8.436;2024-01-16T00:21:54;6.20;;;2.55;;
40729;SDS011;26418;50.070;8.436;2024-01-16T00:24:20;7.85;;;2.50;;
40729;SDS011;26418;50.070;8.436;2024-01-16T00:26:45;7.03;;;2.67;;
40729;SDS011;26418;50.070;8.436;2024-01-16T00:29:11;6.80;;;2.97;;
40729;SDS011;26418;50.070;8.436;2024-01-16T00:31:40;7.60;;;2.58;;
40729;SDS011;26418;50.070;8.436;2024-01-16T00:34:06;7.45;;;2.60;;
40729;SDS011;26418;50.070;8.436;2024-01-16T00:36:32;6.95;;;2.85;;
40729;SDS011;26418;50.070;8.436;2024-01-16T00:38:57;7.85;;;3.13;;
40729;SDS011;26418;50.070;8.436;2024-01-16T00:41:23;7.85;;;2.95;;
40729;SDS011;26418;50.070;8.436;2024-01-16T00:43:49;6.80;;;2.72;;
40729;SDS011;26418;50.070;8.436;2024-01-16T00:46:14;6.63;;;2.75;;
40729;SDS011;26418;50.070;8.436;2024-01-16T00:48:40;7.80;;;2.85;;
40729;SDS011;26418;50.070;8.436;2024-01-16T00:51:05;11.13;;;3.15;;
40729;SDS011;26418;50.070;8.436;2024-01-16T00:53:31;6.68;;;2.92;;
40729;SDS011;26418;50.070;8.436;2024-01-16T00:55:56;11.70;;;3.45;;
40729;SDS011;26418;50.070;8.436;2024-01-16T00:58:22;7.70;;;2.85;;
40729;SDS011;26418;50.070;8.436;2024-01-16T01:00:48;9.15;;;3.47;;
40729;SDS011;26418;50.070;8.436;2024-01-16T01:03:14;7.95;;;3.60;;
40729;SDS011;26418;50.070;8.436;2024-01-16T01:05:40;7.60;;;3.20;;
40729;SDS011;26418;50.070;8.436;2024-01-16T01:08:06;10.02;;;3.35;;
40729;SDS011;26418;50.070;8.436;2024-01-16T01:10:32;5.93;;;2.88;;
40729;SDS011;26418;50.070;8.436;2024-01-16T01:12:58;12.50;;;3.22;;
40729;SDS011;26418;50.070;8.436;2024-01-16T01:15:23;7.68;;;2.92;;
40729;SDS011;26418;50.070;8.436;2024-01-16T01:17:49;8.20;;;3.70;;
40729;SDS011;26418;50.070;8.436;2024-01-16T01:20:15;5.03;;;2.72;;
40729;SDS011;26418;50.070;8.436;2024-01-16T01:22:43;10.25;;;3.22;;
40729;SDS011;26418;50.070;8.436;2024-01-16T01:25:09;8.02;;;2.88;;
40729;SDS011;26418;50.070;8.436;2024-01-16T01:27:36;6.70;;;3.08;;
40729;SDS011;26418;50.070;8.436;2024-01-16T01:30:02;5.75;;;3.13;;
40729;SDS011;26418;50.070;8.436;2024-01-16T01:32:28;10.20;;;3.88;;
40729;SDS011;26418;50.070;8.436;2024-01-16T01:34:54;6.10;;;3.03;;
40729;SDS011;26418;50.070;8.436;2024-01-16T01:37:20;6.35;;;3.03;;
40729;SDS011;26418;50.070;8.436;2024-01-16T01:39:45;10.60;;;3.28;;
40729;SDS011;26418;50.070;8.436;2024-01-16T01:42:11;8.93;;;2.97;;
40729;SDS011;26418;50.070;8.436;2024-01-16T01:44:36;11.27;;;3.67;;
40729;SDS011;26418;50.070;8.436;2024-01-16T01:47:02;10.00;;;4.10;;
40729;SDS011;26418;50.070;8.436;2024-01-16T01:49:28;9.82;;;3.63;;
40729;SDS011;26418;50.070;8.436;2024-01-16T01:51:56;7.30;;;4.15;;
40729;SDS011;26418;50.070;8.436;2024-01-16T01:54:22;7.72;;;3.70;;
40729;SDS011;26418;50.070;8.436;2024-01-16T01:56:48;7.28;;;3.58;;
40729;SDS011;26418;50.070;8.436;2024-01-16T01:59:14;5.75;;;3.15;;
40729;SDS011;26418;50.070;8.436;2024-01-16T02:01:43;9.13;;;3.38;;
40729;SDS011;26418;50.070;8.436;2024-01-16T02:04:10;5.95;;;3.42;;
40729;SDS011;26418;50.070;8.436;2024-01-16T02:06:37;6.78;;;3.85;;
40729;SDS011;26418;50.070;8.436;2024-01-16T02:09:03;9.65;;;3.60;;
40729;SDS011;26418;50.070;8.436;2024-01-16T02:11:32;6.38;;;3.72;;
40729;SDS011;26418;50.070;8.436;2024-01-16T02:13:57;5.95;;;3.53;;
40729;SDS011;26418;50.070;8.436;2024-01-16T02:16:23;4.20;;;3.15;;
40729;SDS011;26418;50.070;8.436;2024-01-16T02:18:49;11.05;;;3.70;;
40729;SDS011;26418;50.070;8.436;2024-01-16T02:21:22;8.98;;;3.40;;
40729;SDS011;26418;50.070;8.436;2024-01-16T02:23:53;7.35;;;3.60;;
40729;SDS011;26418;50.070;8.436;2024-01-16T02:26:19;10.52;;;3.97;;
40729;SDS011;26418;50.070;8.436;2024-01-16T02:28:44;9.05;;;3.15;;
40729;SDS011;26418;50.070;8.436;2024-01-16T02:31:10;8.10;;;3.78;;
40729;SDS011;26418;50.070;8.436;2024-01-16T02:33:36;8.52;;;3.38;;
40729;SDS011;26418;50.070;8.436;2024-01-16T02:36:03;6.80;;;3.60;;
40729;SDS011;26418;50.070;8.436;2024-01-16T02:38:29;7.85;;;3.60;;
40729;SDS011;26418;50.070;8.436;2024-01-16T02:40:54;5.93;;;3.67;;
40729;SDS011;26418;50.070;8.436;2024-01-16T02:43:20;8.35;;;3.60;;
40729;SDS011;26418;50.070;8.436;2024-01-16T02:45:46;6.68;;;3.63;;
40729;SDS011;26418;50.070;8.436;2024-01-16T02:48:11;12.60;;;4.72;;
40729;SDS011;26418;50.070;8.436;2024-01-16T02:50:37;13.35;;;4.70;;
40729;SDS011;26418;50.070;8.436;2024-01-16T02:53:03;4.35;;;3.50;;
40729;SDS011;26418;50.070;8.436;2024-01-16T02:55:29;12.32;;;4.30;;
40729;SDS011;26418;50.070;8.436;2024-01-16T02:57:54;6.13;;;3.40;;
40729;SDS011;26418;50.070;8.436;2024-01-16T03:00:20;8.95;;;3.45;;
40729;SDS011;26418;50.070;8.436;2024-01-16T03:02:47;10.18;;;4.03;;
40729;SDS011;26418;50.070;8.436;2024-01-16T03:05:13;7.60;;;3.88;;
40729;SDS011;26418;50.070;8.436;2024-01-16T03:07:39;11.93;;;4.13;;
40729;SDS011;26418;50.070;8.436;2024-01-16T03:10:06;10.18;;;4.45;;
40729;SDS011;26418;50.070;8.436;2024-01-16T03:12:32;6.97;;;3.65;;
40729;SDS011;26418;50.070;8.436;2024-01-16T03:14:57;12.35;;;4.13;;
40729;SDS011;26418;50.070;8.436;2024-01-16T03:17:23;7.63;;;3.63;;
40729;SDS011;26418;50.070;8.436;2024-01-16T03:19:49;6.78;;;3.58;;
40729;SDS011;26418;50.070;8.436;2024-01-16T03:22:14;11.52;;;4.32;;
40729;SDS011;26418;50.070;8.436;2024-01-16T03:24:40;6.13;;;3.75;;
40729;SDS011;26418;50.070;8.436;2024-01-16T03:27:05;8.05;;;3.50;;
40729;SDS011;26418;50.070;8.436;2024-01-16T03:29:31;5.13;;;3.20;;
40729;SDS011;26418;50.070;8.436;2024-01-16T03:31:58;9.88;;;4.10;;
40729;SDS011;26418;50.070;8.436;2024-01-16T03:34:24;8.70;;;3.65;;
40729;SDS011;26418;50.070;8.436;2024-01-16T03:36:50;10.90;;;4.57;;
40729;SDS011;26418;50.070;8.436;2024-01-16T03:39:15;7.03;;;3.80;;
40729;SDS011;26418;50.070;8.436;2024-01-16T03:41:41;4.60;;;3.40;;
40729;SDS011;26418;50.070;8.436;2024-01-16T03:44:06;8.85;;;3.50;;
40729;SDS011;26418;50.070;8.436;2024-01-16T03:46:32;8.13;;;3.90;;
40729;SDS011;26418;50.070;8.436;2024-01-16T03:48:57;5.78;;;3.40;;
40729;SDS011;26418;50.070;8.436;2024-01-16T03:51:23;7.18;;;3.38;;
40729;SDS011;26418;50.070;8.436;2024-01-16T03:53:48;9.35;;;3.60;;
40729;SDS011;26418;50.070;8.436;2024-01-16T03:56:15;7.53;;;3.70;;
40729;SDS011;26418;50.070;8.436;2024-01-16T03:58:41;8.18;;;3.00;;
40729;SDS011;26418;50.070;8.436;2024-01-16T04:01:08;6.60;;;3.17;;
40729;SDS011;26418;50.070;8.436;2024-01-16T04:03:33;15.23;;;3.55;;
40729;SDS011;26418;50.070;8.436;2024-01-16T04:06:03;13.98;;;3.78;;
40729;SDS011;26418;50.070;8.436;2024-01-16T04:08:29;5.70;;;3.22;;
40729;SDS011;26418;50.070;8.436;2024-01-16T04:10:59;10.60;;;3.10;;
40729;SDS011;26418;50.070;8.436;2024-01-16T04:13:25;8.73;;;3.72;;
40729;SDS011;26418;50.070;8.436;2024-01-16T04:15:51;8.35;;;3.92;;
40729;SDS011;26418;50.070;8.436;2024-01-16T04:18:17;11.07;;;4.68;;
40729;SDS011;26418;50.070;8.436;2024-01-16T04:20:43;10.85;;;4.75;;
40729;SDS011;26418;50.070;8.436;2024-01-16T04:23:08;9.45;;;4.68;;
40729;SDS011;26418;50.070;8.436;2024-01-16T04:25:34;12.55;;;4.60;;
40729;SDS011;26418;50.070;8.436;2024-01-16T04:27:59;7.38;;;3.83;;
40729;SDS011;26418;50.070;8.436;2024-01-16T04:30:25;13.70;;;4.40;;
40729;SDS011;26418;50.070;8.436;2024-01-16T04:32:51;12.07;;;4.45;;
40729;SDS011;26418;50.070;8.436;2024-01-16T04:35:16;8.25;;;3.97;;
40729;SDS011;26418;50.070;8.436;2024-01-16T04:37:42;10.75;;;4.47;;
40729;SDS011;26418;50.070;8.436;2024-01-16T04:40:07;6.97;;;3.30;;
40729;SDS011;26418;50.070;8.436;2024-01-16T04:42:33;9.70;;;4.55;;
40729;SDS011;26418;50.070;8.436;2024-01-16T04:44:59;8.35;;;3.70;;
40729;SDS011;26418;50.070;8.436;2024-01-16T04:47:25;12.50;;;4.80;;
40729;SDS011;26418;50.070;8.436;2024-01-16T04:49:50;9.38;;;4.57;;
40729;SDS011;26418;50.070;8.436;2024-01-16T04:52:16;10.60;;;4.63;;
40729;SDS011;26418;50.070;8.436;2024-01-16T04:54:41;11.35;;;4.22;;
40729;SDS011;26418;50.070;8.436;2024-01-16T04:57:07;9.85;;;4.68;;
40729;SDS011;26418;50.070;8.436;2024-01-16T04:59:32;9.77;;;3.80;;
40729;SDS011;26418;50.070;8.436;2024-01-16T05:01:58;10.05;;;3.95;;
40729;SDS011;26418;50.070;8.436;2024-01-16T05:04:23;8.57;;;3.95;;
40729;SDS011;26418;50.070;8.436;2024-01-16T05:06:50;15.02;;;5.07;;
40729;SDS011;26418;50.070;8.436;2024-01-16T05:09:17;8.70;;;4.88;;
40729;SDS011;26418;50.070;8.436;2024-01-16T05:11:44;10.55;;;4.00;;
40729;SDS011;26418;50.070;8.436;2024-01-16T05:14:11;9.38;;;4.68;;
40729;SDS011;26418;50.070;8.436;2024-01-16T05:16:36;9.13;;;4.55;;
40729;SDS011;26418;50.070;8.436;2024-01-16T05:19:02;10.73;;;3.72;;
40729;SDS011;26418;50.070;8.436;2024-01-16T05:21:27;7.22;;;3.72;;
40729;SDS011;26418;50.070;8.436;2024-01-16T05:23:53;20.13;;;4.32;;
40729;SDS011;26418;50.070;8.436;2024-01-16T05:26:19;8.43;;;4.18;;
40729;SDS011;26418;50.070;8.436;2024-01-16T05:28:45;11.00;;;4.30;;
40729;SDS011;26418;50.070;8.436;2024-01-16T05:31:10;7.78;;;3.83;;
40729;SDS011;26418;50.070;8.436;2024-01-16T05:33:36;9.27;;;3.83;;
40729;SDS011;26418;50.070;8.436;2024-01-16T05:36:01;10.45;;;4.15;;
40729;SDS011;26418;50.070;8.436;2024-01-16T05:38:27;10.40;;;4.60;;
40729;SDS011;26418;50.070;8.436;2024-01-16T05:40:52;7.85;;;4.05;;
40729;SDS011;26418;50.070;8.436;2024-01-16T05:43:18;10.68;;;4.28;;
40729;SDS011;26418;50.070;8.436;2024-01-16T05:45:44;8.52;;;3.85;;
40729;SDS011;26418;50.070;8.436;2024-01-16T05:48:09;12.55;;;4.32;;
40729;SDS011;26418;50.070;8.436;2024-01-16T05:50:36;10.63;;;3.92;;
40729;SDS011;26418;50.070;8.436;2024-01-16T05:53:02;11.48;;;3.83;;
40729;SDS011;26418;50.070;8.436;2024-01-16T05:55:28;8.57;;;4.15;;
40729;SDS011;26418;50.070;8.436;2024-01-16T05:57:57;9.02;;;3.72;;
40729;SDS011;26418;50.070;8.436;2024-01-16T06:00:24;14.63;;;4.72;;
40729;SDS011;26418;50.070;8.436;2024-01-16T06:02:50;10.75;;;4.90;;
40729;SDS011;26418;50.070;8.436;2024-01-16T06:05:15;11.68;;;4.10;;
40729;SDS011;26418;50.070;8.436;2024-01-16T06:07:41;10.35;;;4.05;;
40729;SDS011;26418;50.070;8.436;2024-01-16T06:10:07;9.88;;;3.75;;
40729;SDS011;26418;50.070;8.436;2024-01-16T06:12:33;8.25;;;3.30;;
40729;SDS011;26418;50.070;8.436;2024-01-16T06:14:59;7.45;;;4.30;;
40729;SDS011;26418;50.070;8.436;2024-01-16T06:17:25;9.63;;;3.83;;
40729;SDS011;26418;50.070;8.436;2024-01-16T06:19:50;8.77;;;4.20;;
40729;SDS011;26418;50.070;8.436;2024-01-16T06:22:16;8.15;;;3.80;;
40729;SDS011;26418;50.070;8.436;2024-01-16T06:24:41;10.30;;;4.38;;
40729;SDS011;26418;50.070;8.436;2024-01-16T06:27:07;8.38;;;4.07;;
40729;SDS011;26418;50.070;8.436;2024-01-16T06:29:32;7.80;;;3.75;;
40729;SDS011;26418;50.070;8.436;2024-01-16T06:31:58;9.82;;;3.85;;
40729;SDS011;26418;50.070;8.436;2024-01-16T06:34:24;5.22;;;3.72;;
40729;SDS011;26418;50.070;8.436;2024-01-16T06:36:49;10.95;;;3.33;;
40729;SDS011;26418;50.070;8.436;2024-01-16T06:39:15;11.40;;;4.15;;
40729;SDS011;26418;50.070;8.436;2024-01-16T06:41:41;10.60;;;4.15;;
40729;SDS011;26418;50.070;8.436;2024-01-16T06:44:07;8.57;;;4.70;;
40729;SDS011;26418;50.070;8.436;2024-01-16T06:46:32;12.75;;;4.55;;
40729;SDS011;26418;50.070;8.436;2024-01-16T06:48:58;14.50;;;4.72;;
40729;SDS011;26418;50.070;8.436;2024-01-16T06:51:23;6.50;;;3.20;;
40729;SDS011;26418;50.070;8.436;2024-01-16T06:53:49;7.93;;;3.25;;
40729;SDS011;26418;50.070;8.436;2024-01-16T06:56:14;7.18;;;2.83;;
40729;SDS011;26418;50.070;8.436;2024-01-16T06:58:40;7.68;;;3.17;;
40729;SDS011;26418;50.070;8.436;2024-01-16T07:01:05;10.13;;;4.68;;
40729;SDS011;26418;50.070;8.436;2024-01-16T07:03:33;10.00;;;5.38;;
40729;SDS011;26418;50.070;8.436;2024-01-16T07:05:59;12.07;;;6.35;;
40729;SDS011;26418;50.070;8.436;2024-01-16T07:08:25;10.98;;;5.82;;
40729;SDS011;26418;50.070;8.436;2024-01-16T07:10:50;10.18;;;4.90;;
40729;SDS011;26418;50.070;8.436;2024-01-16T07:13:16;12.15;;;5.82;;
40729;SDS011;26418;50.070;8.436;2024-01-16T07:15:41;14.65;;;4.75;;
40729;SDS011;26418;50.070;8.436;2024-01-16T07:18:07;11.45;;;5.20;;
40729;SDS011;26418;50.070;8.436;2024-01-16T07:20:32;11.13;;;4.25;;
40729;SDS011;26418;50.070;8.436;2024-01-16T07:22:58;12.13;;;5.07;;
40729;SDS011;26418;50.070;8.436;2024-01-16T07:25:24;9.23;;;4.75;;
40729;SDS011;26418;50.070;8.436;2024-01-16T07:27:49;9.18;;;4.28;;
40729;SDS011;26418;50.070;8.436;2024-01-16T07:30:15;9.93;;;4.70;;
40729;SDS011;26418;50.070;8.436;2024-01-16T07:32:41;9.15;;;4.40;;
40729;SDS011;26418;50.070;8.436;2024-01-16T07:35:07;14.75;;;4.05;;
40729;SDS011;26418;50.070;8.436;2024-01-16T07:37:33;8.30;;;4.78;;
40729;SDS011;26418;50.070;8.436;2024-01-16T07:39:58;7.05;;;4.20;;
40729;SDS011;26418;50.070;8.436;2024-01-16T07:42:24;12.57;;;5.05;;
40729;SDS011;26418;50.070;8.436;2024-01-16T07:44:49;9.20;;;4.68;;
40729;SDS011;26418;50.070;8.436;2024-01-16T07:47:16;16.63;;;5.30;;
40729;SDS011;26418;50.070;8.436;2024-01-16T07:49:42;11.15;;;5.70;;
40729;SDS011;26418;50.070;8.436;2024-01-16T07:52:08;9.73;;;4.47;;
40729;SDS011;26418;50.070;8.436;2024-01-16T07:54:34;11.65;;;5.13;;
40729;SDS011;26418;50.070;8.436;2024-01-16T07:56:59;9.45;;;4.65;;
40729;SDS011;26418;50.070;8.436;2024-01-16T07:59:25;11.73;;;5.35;;
40729;SDS011;26418;50.070;8.436;2024-01-16T08:01:51;12.57;;;5.20;;
40729;SDS011;26418;50.070;8.436;2024-01-16T08:04:17;12.95;;;5.10;;
40729;SDS011;26418;50.070;8.436;2024-01-16T08:06:42;12.43;;;4.72;;
40729;SDS011;26418;50.070;8.436;2024-01-16T08:09:08;7.78;;;4.90;;
40729;SDS011;26418;50.070;8.436;2024-01-16T08:11:36;13.45;;;5.75;;
40729;SDS011;26418;50.070;8.436;2024-01-16T08:14:02;13.88;;;6.28;;
40729;SDS011;26418;50.070;8.436;2024-01-16T08:16:28;8.20;;;5.35;;
40729;SDS011;26418;50.070;8.436;2024-01-16T08:18:53;11.38;;;5.45;;
40729;SDS011;26418;50.070;8.436;2024-01-16T08:21:19;17.92;;;6.82;;
40729;SDS011;26418;50.070;8.436;2024-01-16T08:23:44;19.23;;;6.15;;
40729;SDS011;26418;50.070;8.436;2024-01-16T08:26:10;12.82;;;5.63;;
40729;SDS011;26418;50.070;8.436;2024-01-16T08:28:35;12.73;;;5.85;;
40729;SDS011;26418;50.070;8.436;2024-01-16T08:31:01;11.98;;;5.45;;
40729;SDS011;26418;50.070;8.436;2024-01-16T08:33:27;13.40;;;5.40;;
40729;SDS011;26418;50.070;8.436;2024-01-16T08:35:52;11.27;;;5.22;;
40729;SDS011;26418;50.070;8.436;2024-01-16T08:38:18;9.13;;;5.35;;
40729;SDS011;26418;50.070;8.436;2024-01-16T08:40:43;14.30;;;6.20;;
40729;SDS011;26418;50.070;8.436;2024-01-16T08:43:09;9.68;;;5.47;;
40729;SDS011;26418;50.070;8.436;2024-01-16T08:45:34;13.07;;;5.90;;
40729;SDS011;26418;50.070;8.436;2024-01-16T08:48:00;10.77;;;5.00;;
40729;SDS011;26418;50.070;8.436;2024-01-16T08:50:25;16.15;;;5.65;;
40729;SDS011;26418;50.070;8.436;2024-01-16T08:52:51;10.23;;;5.53;;
40729;SDS011;26418;50.070;8.436;2024-01-16T08:55:16;11.77;;;5.18;;
40729;SDS011;26418;50.070;8.436;2024-01-16T08:57:42;11.50;;;5.32;;
40729;SDS011;26418;50.070;8.436;2024-01-16T09:00:08;12.27;;;5.68;;
40729;SDS011;26418;50.070;8.436;2024-01-16T09:02:34;11.82;;;6.18;;
40729;SDS011;26418;50.070;8.436;2024-01-16T09:05:00;15.70;;;5.82;;
40729;SDS011;26418;50.070;8.436;2024-01-16T09:07:26;13.18;;;6.45;;
40729;SDS011;26418;50.070;8.436;2024-01-16T09:09:51;14.75;;;6.65;;
40729;SDS011;26418;50.070;8.436;2024-01-16T09:12:17;15.63;;;6.32;;
40729;SDS011;26418;50.070;8.436;2024-01-16T09:14:42;13.13;;;5.72;;
40729;SDS011;26418;50.070;8.436;2024-01-16T09:17:08;11.63;;;5.43;;
40729;SDS011;26418;50.070;8.436;2024-01-16T09:19:33;12.27;;;5.80;;
40729;SDS011;26418;50.070;8.436;2024-01-16T09:21:59;13.65;;;5.63;;
40729;SDS011;26418;50.070;8.436;2024-01-16T09:24:24;15.82;;;6.40;;
40729;SDS011;26418;50.070;8.436;2024-01-16T09:26:50;13.25;;;5.85;;
40729;SDS011;26418;50.070;8.436;2024-01-16T09:29:15;13.45;;;5.38;;
40729;SDS011;26418;50.070;8.436;2024-01-16T09:31:41;12.98;;;6.13;;
40729;SDS011;26418;50.070;8.436;2024-01-16T09:34:07;13.07;;;5.95;;
40729;SDS011;26418;50.070;8.436;2024-01-16T09:36:32;10.95;;;5.72;;
40729;SDS011;26418;50.070;8.436;2024-01-16T09:39:01;16.98;;;6.97;;
40729;SDS011;26418;50.070;8.436;2024-01-16T09:41:27;13.98;;;6.43;;
40729;SDS011;26418;50.070;8.436;2024-01-16T09:43:53;11.30;;;5.70;;
40729;SDS011;26418;50.070;8.436;2024-01-16T09:46:20;11.95;;;6.07;;
40729;SDS011;26418;50.070;8.436;2024-01-16T09:48:49;11.98;;;5.70;;
40729;SDS011;26418;50.070;8.436;2024-01-16T09:51:16;11.30;;;5.57;;
40729;SDS011;26418;50.070;8.436;2024-01-16T09:53:42;15.32;;;6.43;;
40729;SDS011;26418;50.070;8.436;2024-01-16T09:56:09;11.82;;;5.53;;
40729;SDS011;26418;50.070;8.436;2024-01-16T09:58:41;11.80;;;5.05;;
40729;SDS011;26418;50.070;8.436;2024-01-16T10:01:10;17.42;;;6.93;;
40729;SDS011;26418;50.070;8.436;2024-01-16T10:03:36;9.93;;;5.93;;
40729;SDS011;26418;50.070;8.436;2024-01-16T10:06:04;11.30;;;5.15;;
40729;SDS011;26418;50.070;8.436;2024-01-16T10:08:31;12.85;;;5.90;;
40729;SDS011;26418;50.070;8.436;2024-01-16T10:10:57;12.05;;;5.78;;
40729;SDS011;26418;50.070;8.436;2024-01-16T10:13:23;12.95;;;6.10;;
40729;SDS011;26418;50.070;8.436;2024-01-16T10:15:49;13.07;;;6.18;;
40729;SDS011;26418;50.070;8.436;2024-01-16T10:20:51;14.38;;;6.95;;
40729;SDS011;26418;50.070;8.436;2024-01-16T10:28:35;14.77;;;6.07;;
40729;SDS011;26418;50.070;8.436;2024-01-16T10:31:02;13.70;;;6.57;;
40729;SDS011;26418;50.070;8.436;2024-01-16T10:33:32;13.40;;;6.22;;
40729;SDS011;26418;50.070;8.436;2024-01-16T10:38:37;12.77;;;6.45;;
40729;SDS011;26418;50.070;8.436;2024-01-16T10:41:10;13.20;;;6.18;;
40729;SDS011;26418;50.070;8.436;2024-01-16T10:43:36;14.63;;;6.13;;
40729;SDS011;26418;50.070;8.436;2024-01-16T10:46:12;9.77;;;5.50;;
40729;SDS011;26418;50.070;8.436;2024-01-16T10:48:41;9.93;;;5.80;;
40729;SDS011;26418;50.070;8.436;2024-01-16T10:51:09;13.20;;;5.45;;
40729;SDS011;26418;50.070;8.436;2024-01-16T10:53:45;9.02;;;5.93;;
40729;SDS011;26418;50.070;8.436;2024-01-16T10:56:11;14.10;;;6.35;;
40729;SDS011;26418;50.070;8.436;2024-01-16T10:58:41;10.80;;;5.38;;
40729;SDS011;26418;50.070;8.436;2024-01-16T11:01:10;11.88;;;5.15;;
40729;SDS011;26418;50.070;8.436;2024-01-16T11:03:43;10.55;;;5.82;;
40729;SDS011;26418;50.070;8.436;2024-01-16T11:06:11;8.57;;;4.85;;
40729;SDS011;26418;50.070;8.436;2024-01-16T11:08:38;13.20;;;5.28;;
40729;SDS011;26418;50.070;8.436;2024-01-16T11:11:04;14.23;;;5.65;;
40729;SDS011;26418;50.070;8.436;2024-01-16T11:13:31;8.68;;;5.15;;
40729;SDS011;26418;50.070;8.436;2024-01-16T11:15:59;15.13;;;5.63;;
40729;SDS011;26418;50.070;8.436;2024-01-16T11:18:26;11.25;;;5.20;;
40729;SDS011;26418;50.070;8.436;2024-01-16T11:20:54;10.98;;;4.47;;
40729;SDS011;26418;50.070;8.436;2024-01-16T11:23:21;12.43;;;5.40;;
40729;SDS011;26418;50.070;8.436;2024-01-16T11:25:47;10.35;;;4.63;;
40729;SDS011;26418;50.070;8.436;2024-01-16T11:28:13;11.40;;;4.40;;
40729;SDS011;26418;50.070;8.436;2024-01-16T11:30:39;13.85;;;5.65;;
40729;SDS011;26418;50.070;8.436;2024-01-16T11:33:06;12.30;;;5.15;;
40729;SDS011;26418;50.070;8.436;2024-01-16T11:35:51;13.70;;;5.07;;
40729;SDS011;26418;50.070;8.436;2024-01-16T11:38:17;14.85;;;5.13;;
40729;SDS011;26418;50.070;8.436;2024-01-16T11:40:45;9.98;;;4.38;;
40729;SDS011;26418;50.070;8.436;2024-01-16T11:46:10;9.70;;;4.20;;
40729;SDS011;26418;50.070;8.436;2024-01-16T11:48:36;8.30;;;4.93;;
40729;SDS011;26418;50.070;8.436;2024-01-16T11:51:23;11.38;;;4.90;;
40729;SDS011;26418;50.070;8.436;2024-01-16T11:53:50;8.23;;;3.47;;
40729;SDS011;26418;50.070;8.436;2024-01-16T11:56:21;9.60;;;4.57;;
40729;SDS011;26418;50.070;8.436;2024-01-16T11:59:18;11.43;;;3.95;;
40729;SDS011;26418;50.070;8.436;2024-01-16T12:01:52;13.32;;;4.85;;
40729;SDS011;26418;50.070;8.436;2024-01-16T12:04:23;9.73;;;4.10;;
40729;SDS011;26418;50.070;8.436;2024-01-16T12:06:58;10.02;;;3.70;;
40729;SDS011;26418;50.070;8.436;2024-01-16T12:09:25;7.57;;;3.35;;
40729;SDS011;26418;50.070;8.436;2024-01-16T12:11:55;9.48;;;3.40;;
40729;SDS011;26418;50.070;8.436;2024-01-16T12:14:24;8.23;;;4.07;;
40729;SDS011;26418;50.070;8.436;2024-01-16T12:16:50;14.35;;;4.18;;
40729;SDS011;26418;50.070;8.436;2024-01-16T12:19:15;6.65;;;3.40;;
40729;SDS011;26418;50.070;8.436;2024-01-16T12:21:41;7.60;;;3.17;;
40729;SDS011;26418;50.070;8.436;2024-01-16T12:24:11;9.25;;;3.83;;
40729;SDS011;26418;50.070;8.436;2024-01-16T12:26:38;5.20;;;2.80;;
40729;SDS011;26418;50.070;8.436;2024-01-16T12:29:07;11.95;;;4.10;;
40729;SDS011;26418;50.070;8.436;2024-01-16T12:31:33;6.88;;;3.33;;
40729;SDS011;26418;50.070;8.436;2024-01-16T12:34:06;8.82;;;3.70;;
40729;SDS011;26418;50.070;8.436;2024-01-16T12:36:35;7.50;;;3.72;;
40729;SDS011;26418;50.070;8.436;2024-01-16T12:39:01;8.80;;;4.15;;
40729;SDS011;26418;50.070;8.436;2024-01-16T12:41:31;9.10;;;3.47;;
40729;SDS011;26418;50.070;8.436;2024-01-16T12:44:02;8.43;;;3.47;;
40729;SDS011;26418;50.070;8.436;2024-01-16T12:46:28;9.60;;;3.47;;
40729;SDS011;26418;50.070;8.436;2024-01-16T12:48:59;10.93;;;3.83;;
40729;SDS011;26418;50.070;8.436;2024-01-16T12:51:26;9.52;;;3.47;;
40729;SDS011;26418;50.070;8.436;2024-01-16T12:53:51;6.60;;;2.95;;
40729;SDS011;26418;50.070;8.436;2024-01-16T12:56:20;10.65;;;3.17;;
40729;SDS011;26418;50.070;8.436;2024-01-16T12:58:46;6.93;;;3.22;;
40729;SDS011;26418;50.070;8.436;2024-01-16T13:01:28;8.23;;;3.47;;
40729;SDS011;26418;50.070;8.436;2024-01-16T13:03:56;8.10;;;3.28;;
40729;SDS011;26418;50.070;8.436;2024-01-16T13:06:22;9.93;;;3.65;;
40729;SDS011;26418;50.070;8.436;2024-01-16T13:08:48;10.05;;;4.70;;
40729;SDS011;26418;50.070;8.436;2024-01-16T13:11:15;11.63;;;4.75;;
40729;SDS011;26418;50.070;8.436;2024-01-16T13:13:48;10.43;;;4.20;;
40729;SDS011;26418;50.070;8.436;2024-01-16T13:16:14;12.65;;;4.57;;
40729;SDS011;26418;50.070;8.436;2024-01-16T13:18:41;10.43;;;4.63;;
40729;SDS011;26418;50.070;8.436;2024-01-16T13:21:07;15.75;;;5.13;;
40729;SDS011;26418;50.070;8.436;2024-01-16T13:23:32;11.35;;;4.57;;
40729;SDS011;26418;50.070;8.436;2024-01-16T13:25:58;13.00;;;3.85;;
40729;SDS011;26418;50.070;8.436;2024-01-16T13:28:32;12.32;;;5.22;;
40729;SDS011;26418;50.070;8.436;2024-01-16T13:30:58;11.27;;;4.63;;
40729;SDS011;26418;50.070;8.436;2024-01-16T13:33:24;8.98;;;4.57;;
40729;SDS011;26418;50.070;8.436;2024-01-16T13:35:52;10.40;;;4.13;;
40729;SDS011;26418;50.070;8.436;2024-01-16T13:38:19;12.48;;;4.78;;
40729;SDS011;26418;50.070;8.436;2024-01-16T13:40:45;12.90;;;5.60;;
40729;SDS011;26418;50.070;8.436;2024-01-16T13:43:11;10.20;;;5.13;;
40729;SDS011;26418;50.070;8.436;2024-01-16T13:45:37;12.07;;;5.90;;
40729;SDS011;26418;50.070;8.436;2024-01-16T13:48:04;11.02;;;5.57;;
40729;SDS011;26418;50.070;8.436;2024-01-16T13:50:31;8.30;;;4.45;;
40729;SDS011;26418;50.070;8.436;2024-01-16T13:52:58;11.50;;;4.70;;
40729;SDS011;26418;50.070;8.436;2024-01-16T13:55:24;13.00;;;5.55;;
40729;SDS011;26418;50.070;8.436;2024-01-16T13:57:50;12.95;;;5.45;;
40729;SDS011;26418;50.070;8.436;2024-01-16T14:00:16;15.63;;;6.00;;
40729;SDS011;26418;50.070;8.436;2024-01-16T14:02:43;10.10;;;4.72;;
40729;SDS011;26418;50.070;8.436;2024-01-16T14:05:10;14.93;;;6.07;;
40729;SDS011;26418;50.070;8.436;2024-01-16T14:07:40;19.25;;;6.07;;
40729;SDS011;26418;50.070;8.436;2024-01-16T14:10:07;12.02;;;5.53;;
40729;SDS011;26418;50.070;8.436;2024-01-16T14:12:35;12.40;;;5.47;;
40729;SDS011;26418;50.070;8.436;2024-01-16T14:15:02;15.52;;;6.40;;
40729;SDS011;26418;50.070;8.436;2024-01-16T14:17:32;18.17;;;6.82;;
40729;SDS011;26418;50.070;8.436;2024-01-16T14:19:59;19.33;;;6.80;;
40729;SDS011;26418;50.070;8.436;2024-01-16T14:22:24;17.20;;;5.35;;
40729;SDS011;26418;50.070;8.436;2024-01-16T14:24:51;13.98;;;5.20;;
40729;SDS011;26418;50.070;8.436;2024-01-16T14:27:17;8.55;;;5.22;;
40729;SDS011;26418;50.070;8.436;2024-01-16T14:29:43;15.10;;;5.38;;
40729;SDS011;26418;50.070;8.436;2024-01-16T14:32:08;12.68;;;5.57;;
40729;SDS011;26418;50.070;8.436;2024-01-16T14:34:35;13.57;;;5.07;;
40729;SDS011;26418;50.070;8.436;2024-01-16T14:37:00;12.70;;;5.03;;
40729;SDS011;26418;50.070;8.436;2024-01-16T14:39:26;10.65;;;5.10;;
40729;SDS011;26418;50.070;8.436;2024-01-16T14:41:56;15.05;;;5.25;;
40729;SDS011;26418;50.070;8.436;2024-01-16T14:44:23;12.52;;;5.80;;
40729;SDS011;26418;50.070;8.436;2024-01-16T14:46:49;8.48;;;4.78;;
40729;SDS011;26418;50.070;8.436;2024-01-16T14:49:15;14.43;;;4.82;;
40729;SDS011;26418;50.070;8.436;2024-01-16T14:51:41;12.02;;;5.72;;